sensor_id;sensor_type;location;lat;lon;timestamp;P1;durP1;ratioP1;P2;durP2;ratioP2
44222;SDS011;29895;48.804;9.386;2024-03-23T00:53:49;6.55;;;4.60;;
44222;SDS011;29895;48.804;9.386;2024-03-23T00:56:14;8.48;;;5.22;;
44222;SDS011;29895;48.804;9.386;2024-03-23T00:58:40;14.32;;;5.07;;
44222;SDS011;29895;48.804;9.386;2024-03-23T01:01:06;11.32;;;5.68;;
44222;SDS011;29895;48.804;9.386;2024-03-23T01:03:31;9.57;;;5.28;;
44222;SDS011;29895;48.804;9.386;2024-03-23T01:06:00;11.70;;;5.32;;
44222;SDS011;29895;48.804;9.386;2024-03-23T01:08:27;11.63;;;6.03;;
44222;SDS011;29895;48.804;9.386;2024-03-23T01:13:21;8.82;;;5.15;;
44222;SDS011;29895;48.804;9.386;2024-03-23T01:15:50;14.40;;;5.43;;
44222;SDS011;29895;48.804;9.386;2024-03-23T01:18:17;10.00;;;5.22;;
44222;SDS011;29895;48.804;9.386;2024-03-23T01:20:43;10.90;;;5.43;;
44222;SDS011;29895;48.804;9.386;2024-03-23T01:23:09;7.60;;;4.75;;
44222;SDS011;29895;48.804;9.386;2024-03-23T01:25:35;11.20;;;5.50;;
44222;SDS011;29895;48.804;9.386;2024-03-23T01:28:01;10.50;;;5.30;;
44222;SDS011;29895;48.804;9.386;2024-03-23T01:30:26;10.35;;;5.35;;
44222;SDS011;29895;48.804;9.386;2024-03-23T01:32:52;9.45;;;5.05;;
44222;SDS011;29895;48.804;9.386;2024-03-23T01:35:18;11.65;;;5.30;;
44222;SDS011;29895;48.804;9.386;2024-03-23T01:37:44;10.07;;;5.50;;
44222;SDS011;29895;48.804;9.386;2024-03-23T01:40:10;9.18;;;5.43;;
44222;SDS011;29895;48.804;9.386;2024-03-23T01:42:38;13.27;;;5.32;;
44222;SDS011;29895;48.804;9.386;2024-03-23T01:45:06;10.55;;;5.18;;
44222;SDS011;29895;48.804;9.386;2024-03-23T01:47:33;10.23;;;4.85;;
44222;SDS011;29895;48.804;9.386;2024-03-23T01:49:59;14.07;;;5.20;;
44222;SDS011;29895;48.804;9.386;2024-03-23T01:52:25;9.55;;;5.43;;
44222;SDS011;29895;48.804;9.386;2024-03-23T01:54:52;8.35;;;5.68;;
44222;SDS011;29895;48.804;9.386;2024-03-23T01:57:18;9.40;;;5.35;;
44222;SDS011;29895;48.804;9.386;2024-03-23T01:59:45;12.25;;;6.47;;
44222;SDS011;29895;48.804;9.386;2024-03-23T02:02:12;9.38;;;6.32;;
44222;SDS011;29895;48.804;9.386;2024-03-23T02:04:37;12.70;;;6.07;;
44222;SDS011;29895;48.804;9.386;2024-03-23T02:07:04;10.20;;;6.00;;
44222;SDS011;29895;48.804;9.386;2024-03-23T02:09:32;10.38;;;5.97;;
44222;SDS011;29895;48.804;9.386;2024-03-23T02:11:58;9.93;;;5.57;;
44222;SDS011;29895;48.804;9.386;2024-03-23T02:14:24;11.02;;;6.38;;
44222;SDS011;29895;48.804;9.386;2024-03-23T02:16:49;10.27;;;6.07;;
44222;SDS011;29895;48.804;9.386;2024-03-23T02:19:15;11.43;;;5.90;;
44222;SDS011;29895;48.804;9.386;2024-03-23T02:21:40;14.07;;;6.22;;
44222;SDS011;29895;48.804;9.386;2024-03-23T02:24:06;10.73;;;6.30;;
44222;SDS011;29895;48.804;9.386;2024-03-23T02:26:32;14.45;;;5.88;;
44222;SDS011;29895;48.804;9.386;2024-03-23T02:28:57;11.15;;;6.57;;
44222;SDS011;29895;48.804;9.386;2024-03-23T02:31:23;12.00;;;6.75;;
44222;SDS011;29895;48.804;9.386;2024-03-23T02:33:49;15.13;;;6.95;;
44222;SDS011;29895;48.804;9.386;2024-03-23T02:36:14;12.95;;;6.43;;
44222;SDS011;29895;48.804;9.386;2024-03-23T02:38:40;13.90;;;6.45;;
44222;SDS011;29895;48.804;9.386;2024-03-23T02:41:05;13.40;;;6.40;;
44222;SDS011;29895;48.804;9.386;2024-03-23T02:43:31;10.88;;;5.15;;
44222;SDS011;29895;48.804;9.386;2024-03-23T02:45:57;10.48;;;3.80;;
44222;SDS011;29895;48.804;9.386;2024-03-23T02:48:22;7.90;;;3.78;;
44222;SDS011;29895;48.804;9.386;2024-03-23T02:50:49;11.23;;;4.03;;
44222;SDS011;29895;48.804;9.386;2024-03-23T02:53:15;13.07;;;3.78;;
44222;SDS011;29895;48.804;9.386;2024-03-23T02:55:41;5.25;;;2.47;;
44222;SDS011;29895;48.804;9.386;2024-03-23T02:58:06;6.25;;;2.60;;
44222;SDS011;29895;48.804;9.386;2024-03-23T03:00:32;6.15;;;2.33;;
44222;SDS011;29895;48.804;9.386;2024-03-23T03:02:57;7.20;;;2.45;;
44222;SDS011;29895;48.804;9.386;2024-03-23T03:05:23;5.25;;;2.40;;
44222;SDS011;29895;48.804;9.386;2024-03-23T03:07:49;5.93;;;2.30;;
44222;SDS011;29895;48.804;9.386;2024-03-23T03:10:14;4.30;;;2.00;;
44222;SDS011;29895;48.804;9.386;2024-03-23T03:12:40;5.85;;;2.20;;
44222;SDS011;29895;48.804;9.386;2024-03-23T03:15:07;5.50;;;2.15;;
44222;SDS011;29895;48.804;9.386;2024-03-23T03:17:34;4.65;;;1.85;;
44222;SDS011;29895;48.804;9.386;2024-03-23T03:20:00;7.13;;;2.13;;
44222;SDS011;29895;48.804;9.386;2024-03-23T03:22:25;3.17;;;2.20;;
44222;SDS011;29895;48.804;9.386;2024-03-23T03:24:51;6.53;;;2.42;;
44222;SDS011;29895;48.804;9.386;2024-03-23T03:27:17;4.18;;;2.42;;
44222;SDS011;29895;48.804;9.386;2024-03-23T03:29:42;8.38;;;2.00;;
44222;SDS011;29895;48.804;9.386;2024-03-23T03:32:08;4.15;;;2.33;;
44222;SDS011;29895;48.804;9.386;2024-03-23T03:34:34;6.97;;;2.30;;
44222;SDS011;29895;48.804;9.386;2024-03-23T03:36:59;4.63;;;2.58;;
44222;SDS011;29895;48.804;9.386;2024-03-23T03:39:25;6.38;;;2.17;;
44222;SDS011;29895;48.804;9.386;2024-03-23T03:41:51;3.58;;;2.45;;
44222;SDS011;29895;48.804;9.386;2024-03-23T03:44:17;3.10;;;2.08;;
44222;SDS011;29895;48.804;9.386;2024-03-23T03:46:42;5.68;;;2.38;;
44222;SDS011;29895;48.804;9.386;2024-03-23T03:49:08;5.70;;;1.95;;
44222;SDS011;29895;48.804;9.386;2024-03-23T03:51:34;6.10;;;2.60;;
44222;SDS011;29895;48.804;9.386;2024-03-23T03:54:00;5.53;;;2.38;;
44222;SDS011;29895;48.804;9.386;2024-03-23T03:56:26;7.85;;;2.30;;
44222;SDS011;29895;48.804;9.386;2024-03-23T03:58:52;7.60;;;2.00;;
44222;SDS011;29895;48.804;9.386;2024-03-23T04:01:18;5.18;;;2.60;;
44222;SDS011;29895;48.804;9.386;2024-03-23T04:03:43;4.47;;;2.30;;
44222;SDS011;29895;48.804;9.386;2024-03-23T04:06:09;5.03;;;2.17;;
44222;SDS011;29895;48.804;9.386;2024-03-23T04:08:35;5.63;;;2.55;;
44222;SDS011;29895;48.804;9.386;2024-03-23T04:11:01;3.38;;;2.10;;
44222;SDS011;29895;48.804;9.386;2024-03-23T04:13:27;4.10;;;2.13;;
44222;SDS011;29895;48.804;9.386;2024-03-23T04:15:56;4.47;;;2.33;;
44222;SDS011;29895;48.804;9.386;2024-03-23T04:18:22;4.53;;;2.30;;
44222;SDS011;29895;48.804;9.386;2024-03-23T04:20:48;5.32;;;2.70;;
44222;SDS011;29895;48.804;9.386;2024-03-23T04:23:14;3.95;;;2.10;;
44222;SDS011;29895;48.804;9.386;2024-03-23T04:25:40;5.53;;;2.45;;
44222;SDS011;29895;48.804;9.386;2024-03-23T04:28:06;5.07;;;2.10;;
44222;SDS011;29895;48.804;9.386;2024-03-23T04:30:31;3.85;;;2.25;;
44222;SDS011;29895;48.804;9.386;2024-03-23T04:32:57;3.20;;;2.10;;
44222;SDS011;29895;48.804;9.386;2024-03-23T04:35:23;6.55;;;2.42;;
44222;SDS011;29895;48.804;9.386;2024-03-23T04:37:52;6.53;;;2.22;;
44222;SDS011;29895;48.804;9.386;2024-03-23T04:40:18;8.10;;;2.63;;
44222;SDS011;29895;48.804;9.386;2024-03-23T04:42:45;3.88;;;2.53;;
44222;SDS011;29895;48.804;9.386;2024-03-23T04:45:10;6.57;;;2.40;;
44222;SDS011;29895;48.804;9.386;2024-03-23T04:47:37;8.13;;;2.47;;
44222;SDS011;29895;48.804;9.386;2024-03-23T04:50:03;4.82;;;2.60;;
44222;SDS011;29895;48.804;9.386;2024-03-23T04:52:30;7.38;;;3.15;;
44222;SDS011;29895;48.804;9.386;2024-03-23T04:54:55;6.85;;;2.80;;
44222;SDS011;29895;48.804;9.386;2024-03-23T04:57:21;8.30;;;3.17;;
44222;SDS011;29895;48.804;9.386;2024-03-23T04:59:47;4.72;;;3.20;;
44222;SDS011;29895;48.804;9.386;2024-03-23T05:02:13;8.60;;;4.05;;
44222;SDS011;29895;48.804;9.386;2024-03-23T05:04:39;10.63;;;4.90;;
44222;SDS011;29895;48.804;9.386;2024-03-23T05:07:07;7.43;;;4.55;;
44222;SDS011;29895;48.804;9.386;2024-03-23T05:09:33;9.60;;;5.00;;
44222;SDS011;29895;48.804;9.386;2024-03-23T05:11:59;9.02;;;5.40;;
44222;SDS011;29895;48.804;9.386;2024-03-23T05:14:25;11.43;;;6.88;;
44222;SDS011;29895;48.804;9.386;2024-03-23T05:16:51;12.90;;;7.63;;
44222;SDS011;29895;48.804;9.386;2024-03-23T05:19:18;16.00;;;8.27;;
44222;SDS011;29895;48.804;9.386;2024-03-23T05:21:43;14.48;;;8.98;;
44222;SDS011;29895;48.804;9.386;2024-03-23T05:24:09;17.08;;;10.82;;
44222;SDS011;29895;48.804;9.386;2024-03-23T05:26:35;19.35;;;11.43;;
44222;SDS011;29895;48.804;9.386;2024-03-23T05:29:01;24.73;;;13.43;;
44222;SDS011;29895;48.804;9.386;2024-03-23T05:31:28;24.40;;;14.77;;
44222;SDS011;29895;48.804;9.386;2024-03-23T05:33:55;30.45;;;15.98;;
44222;SDS011;29895;48.804;9.386;2024-03-23T05:36:20;36.03;;;17.77;;
44222;SDS011;29895;48.804;9.386;2024-03-23T05:38:46;31.58;;;18.05;;
44222;SDS011;29895;48.804;9.386;2024-03-23T05:41:12;36.30;;;18.92;;
44222;SDS011;29895;48.804;9.386;2024-03-23T05:43:38;31.05;;;18.73;;
44222;SDS011;29895;48.804;9.386;2024-03-23T05:46:04;35.22;;;20.15;;
44222;SDS011;29895;48.804;9.386;2024-03-23T05:48:30;33.70;;;20.15;;
44222;SDS011;29895;48.804;9.386;2024-03-23T05:50:56;30.20;;;18.77;;
44222;SDS011;29895;48.804;9.386;2024-03-23T05:53:23;34.65;;;20.13;;
44222;SDS011;29895;48.804;9.386;2024-03-23T05:55:49;36.70;;;20.38;;
44222;SDS011;29895;48.804;9.386;2024-03-23T05:58:16;34.88;;;20.63;;
44222;SDS011;29895;48.804;9.386;2024-03-23T06:00:43;34.28;;;19.55;;
44222;SDS011;29895;48.804;9.386;2024-03-23T06:03:08;34.85;;;19.98;;
44222;SDS011;29895;48.804;9.386;2024-03-23T06:05:35;34.70;;;19.98;;
44222;SDS011;29895;48.804;9.386;2024-03-23T06:08:01;33.83;;;19.23;;
44222;SDS011;29895;48.804;9.386;2024-03-23T06:10:27;31.52;;;19.35;;
44222;SDS011;29895;48.804;9.386;2024-03-23T06:12:53;34.63;;;20.50;;
44222;SDS011;29895;48.804;9.386;2024-03-23T06:15:19;23.42;;;15.25;;
44222;SDS011;29895;48.804;9.386;2024-03-23T06:17:45;21.58;;;10.73;;
44222;SDS011;29895;48.804;9.386;2024-03-23T06:20:11;13.95;;;7.35;;
44222;SDS011;29895;48.804;9.386;2024-03-23T06:22:38;12.27;;;6.78;;
44222;SDS011;29895;48.804;9.386;2024-03-23T06:25:03;8.15;;;5.15;;
44222;SDS011;29895;48.804;9.386;2024-03-23T06:27:29;7.68;;;4.65;;
44222;SDS011;29895;48.804;9.386;2024-03-23T06:29:57;6.22;;;3.60;;
44222;SDS011;29895;48.804;9.386;2024-03-23T06:32:23;8.63;;;4.25;;
44222;SDS011;29895;48.804;9.386;2024-03-23T06:34:48;7.45;;;3.70;;
44222;SDS011;29895;48.804;9.386;2024-03-23T06:37:14;7.60;;;3.20;;
44222;SDS011;29895;48.804;9.386;2024-03-23T06:39:40;7.10;;;3.47;;
44222;SDS011;29895;48.804;9.386;2024-03-23T06:42:05;6.22;;;3.35;;
44222;SDS011;29895;48.804;9.386;2024-03-23T06:44:33;4.97;;;3.28;;
44222;SDS011;29895;48.804;9.386;2024-03-23T06:46:58;7.05;;;3.60;;
44222;SDS011;29895;48.804;9.386;2024-03-23T06:49:24;5.05;;;2.78;;
44222;SDS011;29895;48.804;9.386;2024-03-23T06:51:49;3.72;;;2.40;;
44222;SDS011;29895;48.804;9.386;2024-03-23T06:54:19;4.25;;;2.47;;
44222;SDS011;29895;48.804;9.386;2024-03-23T06:56:44;4.40;;;2.20;;
44222;SDS011;29895;48.804;9.386;2024-03-23T06:59:10;3.30;;;1.95;;
44222;SDS011;29895;48.804;9.386;2024-03-23T07:01:36;3.50;;;1.70;;
44222;SDS011;29895;48.804;9.386;2024-03-23T07:04:02;4.03;;;1.90;;
44222;SDS011;29895;48.804;9.386;2024-03-23T07:06:29;2.95;;;1.63;;
44222;SDS011;29895;48.804;9.386;2024-03-23T07:08:57;2.58;;;1.38;;
44222;SDS011;29895;48.804;9.386;2024-03-23T07:11:23;3.22;;;1.30;;
44222;SDS011;29895;48.804;9.386;2024-03-23T07:13:49;2.88;;;1.10;;
44222;SDS011;29895;48.804;9.386;2024-03-23T07:16:16;1.40;;;1.00;;
44222;SDS011;29895;48.804;9.386;2024-03-23T07:18:42;1.10;;;1.00;;
44222;SDS011;29895;48.804;9.386;2024-03-23T07:21:08;1.35;;;0.82;;
44222;SDS011;29895;48.804;9.386;2024-03-23T07:23:33;0.95;;;0.75;;
44222;SDS011;29895;48.804;9.386;2024-03-23T07:26:03;2.03;;;0.90;;
44222;SDS011;29895;48.804;9.386;2024-03-23T07:28:30;2.38;;;1.23;;
44222;SDS011;29895;48.804;9.386;2024-03-23T07:31:12;1.55;;;0.77;;
44222;SDS011;29895;48.804;9.386;2024-03-23T07:33:46;2.03;;;0.80;;
44222;SDS011;29895;48.804;9.386;2024-03-23T07:36:13;2.60;;;1.25;;
44222;SDS011;29895;48.804;9.386;2024-03-23T07:38:43;0.40;;;0.40;;
44222;SDS011;29895;48.804;9.386;2024-03-23T07:41:12;1.38;;;0.80;;
44222;SDS011;29895;48.804;9.386;2024-03-23T07:43:44;2.03;;;0.80;;
44222;SDS011;29895;48.804;9.386;2024-03-23T07:46:10;1.92;;;0.80;;
44222;SDS011;29895;48.804;9.386;2024-03-23T07:48:37;1.67;;;0.75;;
44222;SDS011;29895;48.804;9.386;2024-03-23T07:53:30;1.58;;;0.90;;
44222;SDS011;29895;48.804;9.386;2024-03-23T07:55:57;2.05;;;0.73;;
44222;SDS011;29895;48.804;9.386;2024-03-23T07:58:24;1.50;;;0.65;;
44222;SDS011;29895;48.804;9.386;2024-03-23T08:00:51;0.50;;;0.50;;
44222;SDS011;29895;48.804;9.386;2024-03-23T08:03:20;3.15;;;0.60;;
44222;SDS011;29895;48.804;9.386;2024-03-23T08:05:46;1.58;;;0.35;;
44222;SDS011;29895;48.804;9.386;2024-03-23T08:08:12;1.25;;;0.40;;
44222;SDS011;29895;48.804;9.386;2024-03-23T08:10:48;2.15;;;0.50;;
44222;SDS011;29895;48.804;9.386;2024-03-23T08:13:14;1.20;;;0.50;;
44222;SDS011;29895;48.804;9.386;2024-03-23T08:15:40;1.25;;;0.60;;
44222;SDS011;29895;48.804;9.386;2024-03-23T08:18:06;0.43;;;0.25;;
44222;SDS011;29895;48.804;9.386;2024-03-23T08:20:32;1.10;;;0.70;;
44222;SDS011;29895;48.804;9.386;2024-03-23T08:23:00;0.70;;;0.52;;
44222;SDS011;29895;48.804;9.386;2024-03-23T08:25:26;1.63;;;0.90;;
44222;SDS011;29895;48.804;9.386;2024-03-23T08:27:51;1.17;;;0.50;;
44222;SDS011;29895;48.804;9.386;2024-03-23T08:30:17;1.17;;;0.70;;
44222;SDS011;29895;48.804;9.386;2024-03-23T08:32:43;2.30;;;0.90;;
44222;SDS011;29895;48.804;9.386;2024-03-23T08:35:09;1.05;;;0.52;;
44222;SDS011;29895;48.804;9.386;2024-03-23T08:37:34;1.27;;;0.88;;
44222;SDS011;29895;48.804;9.386;2024-03-23T08:40:00;1.48;;;0.60;;
44222;SDS011;29895;48.804;9.386;2024-03-23T08:42:26;2.63;;;0.52;;
44222;SDS011;29895;48.804;9.386;2024-03-23T08:44:52;1.25;;;0.80;;
44222;SDS011;29895;48.804;9.386;2024-03-23T08:47:17;1.45;;;0.63;;
44222;SDS011;29895;48.804;9.386;2024-03-23T08:49:44;0.88;;;0.60;;
44222;SDS011;29895;48.804;9.386;2024-03-23T08:52:10;0.63;;;0.50;;
44222;SDS011;29895;48.804;9.386;2024-03-23T08:54:35;0.93;;;0.40;;
44222;SDS011;29895;48.804;9.386;2024-03-23T08:57:01;1.65;;;0.65;;
44222;SDS011;29895;48.804;9.386;2024-03-23T08:59:26;4.28;;;1.33;;
44222;SDS011;29895;48.804;9.386;2024-03-23T09:01:52;2.92;;;1.52;;
44222;SDS011;29895;48.804;9.386;2024-03-23T09:04:18;5.35;;;1.63;;
44222;SDS011;29895;48.804;9.386;2024-03-23T09:06:44;4.50;;;1.30;;
44222;SDS011;29895;48.804;9.386;2024-03-23T09:09:10;7.25;;;1.67;;
44222;SDS011;29895;48.804;9.386;2024-03-23T09:11:36;4.40;;;1.33;;
44222;SDS011;29895;48.804;9.386;2024-03-23T09:14:02;6.05;;;1.83;;
44222;SDS011;29895;48.804;9.386;2024-03-23T09:16:28;6.25;;;1.60;;
44222;SDS011;29895;48.804;9.386;2024-03-23T09:18:54;7.00;;;2.10;;
44222;SDS011;29895;48.804;9.386;2024-03-23T09:21:20;6.97;;;1.92;;
44222;SDS011;29895;48.804;9.386;2024-03-23T09:23:46;6.07;;;1.90;;
44222;SDS011;29895;48.804;9.386;2024-03-23T09:26:11;6.88;;;2.13;;
44222;SDS011;29895;48.804;9.386;2024-03-23T09:28:37;4.20;;;1.95;;
44222;SDS011;29895;48.804;9.386;2024-03-23T09:31:06;4.38;;;1.95;;
44222;SDS011;29895;48.804;9.386;2024-03-23T09:33:33;10.00;;;2.33;;
44222;SDS011;29895;48.804;9.386;2024-03-23T09:36:06;8.48;;;3.38;;
44222;SDS011;29895;48.804;9.386;2024-03-23T09:38:34;15.02;;;3.10;;
44222;SDS011;29895;48.804;9.386;2024-03-23T09:41:00;10.35;;;2.88;;
44222;SDS011;29895;48.804;9.386;2024-03-23T09:43:25;14.23;;;2.92;;
44222;SDS011;29895;48.804;9.386;2024-03-23T09:45:52;10.75;;;2.88;;
44222;SDS011;29895;48.804;9.386;2024-03-23T09:48:18;12.20;;;2.97;;
44222;SDS011;29895;48.804;9.386;2024-03-23T09:50:44;11.60;;;3.10;;
44222;SDS011;29895;48.804;9.386;2024-03-23T09:53:11;10.70;;;3.25;;
44222;SDS011;29895;48.804;9.386;2024-03-23T09:55:38;12.55;;;3.28;;
44222;SDS011;29895;48.804;9.386;2024-03-23T09:58:09;10.65;;;3.22;;
44222;SDS011;29895;48.804;9.386;2024-03-23T10:00:38;7.55;;;3.08;;
44222;SDS011;29895;48.804;9.386;2024-03-23T10:03:03;9.40;;;2.92;;
44222;SDS011;29895;48.804;9.386;2024-03-23T10:05:31;9.00;;;2.90;;
44222;SDS011;29895;48.804;9.386;2024-03-23T10:07:59;12.52;;;3.50;;
44222;SDS011;29895;48.804;9.386;2024-03-23T10:10:25;11.23;;;3.42;;
44222;SDS011;29895;48.804;9.386;2024-03-23T10:12:51;9.90;;;3.17;;
44222;SDS011;29895;48.804;9.386;2024-03-23T10:15:18;11.65;;;3.60;;
44222;SDS011;29895;48.804;9.386;2024-03-23T10:17:44;7.18;;;2.92;;
44222;SDS011;29895;48.804;9.386;2024-03-23T10:20:10;9.80;;;3.33;;
44222;SDS011;29895;48.804;9.386;2024-03-23T10:22:37;10.90;;;3.80;;
44222;SDS011;29895;48.804;9.386;2024-03-23T10:25:09;14.20;;;3.17;;
44222;SDS011;29895;48.804;9.386;2024-03-23T10:27:35;10.45;;;3.53;;
44222;SDS011;29895;48.804;9.386;2024-03-23T10:30:11;11.13;;;3.42;;
44222;SDS011;29895;48.804;9.386;2024-03-23T10:32:40;10.90;;;3.50;;
44222;SDS011;29895;48.804;9.386;2024-03-23T10:37:44;10.10;;;3.63;;
44222;SDS011;29895;48.804;9.386;2024-03-23T10:40:12;10.55;;;3.92;;
44222;SDS011;29895;48.804;9.386;2024-03-23T10:42:38;11.02;;;3.33;;
44222;SDS011;29895;48.804;9.386;2024-03-23T10:45:05;10.52;;;3.10;;
44222;SDS011;29895;48.804;9.386;2024-03-23T10:47:32;12.23;;;3.70;;
44222;SDS011;29895;48.804;9.386;2024-03-23T10:49:59;10.48;;;3.00;;
44222;SDS011;29895;48.804;9.386;2024-03-23T10:52:24;11.07;;;3.28;;
44222;SDS011;29895;48.804;9.386;2024-03-23T10:54:53;6.40;;;3.22;;
44222;SDS011;29895;48.804;9.386;2024-03-23T10:57:21;8.85;;;4.28;;
44222;SDS011;29895;48.804;9.386;2024-03-23T10:59:51;16.50;;;5.10;;
44222;SDS011;29895;48.804;9.386;2024-03-23T11:02:20;10.90;;;3.20;;
44222;SDS011;29895;48.804;9.386;2024-03-23T11:04:46;15.50;;;4.57;;
44222;SDS011;29895;48.804;9.386;2024-03-23T11:09:54;12.90;;;5.10;;
44222;SDS011;29895;48.804;9.386;2024-03-23T11:14:52;17.65;;;5.80;;
44222;SDS011;29895;48.804;9.386;2024-03-23T11:17:19;15.57;;;5.88;;
44222;SDS011;29895;48.804;9.386;2024-03-23T11:19:58;19.85;;;7.13;;
44222;SDS011;29895;48.804;9.386;2024-03-23T11:22:47;16.65;;;5.78;;
44222;SDS011;29895;48.804;9.386;2024-03-23T11:27:49;15.73;;;5.75;;
44222;SDS011;29895;48.804;9.386;2024-03-23T11:30:19;11.35;;;4.47;;
44222;SDS011;29895;48.804;9.386;2024-03-23T11:32:47;14.48;;;4.95;;
44222;SDS011;29895;48.804;9.386;2024-03-23T11:38:14;15.02;;;4.30;;
44222;SDS011;29895;48.804;9.386;2024-03-23T11:40:52;8.60;;;4.30;;
44222;SDS011;29895;48.804;9.386;2024-03-23T11:43:18;10.18;;;3.83;;
44222;SDS011;29895;48.804;9.386;2024-03-23T11:45:46;7.57;;;3.60;;
44222;SDS011;29895;48.804;9.386;2024-03-23T11:48:13;10.35;;;3.38;;
44222;SDS011;29895;48.804;9.386;2024-03-23T11:50:41;9.95;;;3.30;;
44222;SDS011;29895;48.804;9.386;2024-03-23T11:58:12;7.03;;;2.80;;
44222;SDS011;29895;48.804;9.386;2024-03-23T12:00:39;6.05;;;3.33;;
44222;SDS011;29895;48.804;9.386;2024-03-23T12:03:05;7.90;;;3.03;;
44222;SDS011;29895;48.804;9.386;2024-03-23T12:05:31;6.05;;;2.85;;
44222;SDS011;29895;48.804;9.386;2024-03-23T12:08:17;3.78;;;2.30;;
44222;SDS011;29895;48.804;9.386;2024-03-23T12:10:44;6.25;;;2.35;;
44222;SDS011;29895;48.804;9.386;2024-03-23T12:13:14;7.00;;;2.42;;
44222;SDS011;29895;48.804;9.386;2024-03-23T12:15:47;3.75;;;1.70;;
44222;SDS011;29895;48.804;9.386;2024-03-23T12:18:14;5.50;;;2.13;;
44222;SDS011;29895;48.804;9.386;2024-03-23T12:20:40;6.03;;;1.85;;
44222;SDS011;29895;48.804;9.386;2024-03-23T12:23:07;7.13;;;2.15;;
44222;SDS011;29895;48.804;9.386;2024-03-23T12:25:35;7.88;;;2.25;;
44222;SDS011;29895;48.804;9.386;2024-03-23T12:28:01;8.95;;;2.03;;
44222;SDS011;29895;48.804;9.386;2024-03-23T12:30:27;9.82;;;2.10;;
44222;SDS011;29895;48.804;9.386;2024-03-23T12:32:53;6.25;;;1.63;;
44222;SDS011;29895;48.804;9.386;2024-03-23T12:35:19;7.10;;;1.92;;
44222;SDS011;29895;48.804;9.386;2024-03-23T12:37:44;8.25;;;1.98;;
44222;SDS011;29895;48.804;9.386;2024-03-23T12:40:10;4.32;;;1.95;;
44222;SDS011;29895;48.804;9.386;2024-03-23T12:42:36;14.85;;;2.17;;
44222;SDS011;29895;48.804;9.386;2024-03-23T12:45:02;7.30;;;2.47;;
44222;SDS011;29895;48.804;9.386;2024-03-23T12:47:30;11.02;;;2.20;;
44222;SDS011;29895;48.804;9.386;2024-03-23T12:49:55;7.88;;;1.92;;
44222;SDS011;29895;48.804;9.386;2024-03-23T12:52:21;7.05;;;2.10;;
44222;SDS011;29895;48.804;9.386;2024-03-23T12:54:49;10.70;;;2.08;;
44222;SDS011;29895;48.804;9.386;2024-03-23T12:57:14;8.02;;;1.52;;
44222;SDS011;29895;48.804;9.386;2024-03-23T12:59:40;9.07;;;2.15;;
44222;SDS011;29895;48.804;9.386;2024-03-23T13:02:06;8.20;;;1.95;;
44222;SDS011;29895;48.804;9.386;2024-03-23T13:04:32;12.77;;;2.45;;
44222;SDS011;29895;48.804;9.386;2024-03-23T13:06:58;9.15;;;2.80;;
44222;SDS011;29895;48.804;9.386;2024-03-23T13:09:23;13.60;;;2.70;;
44222;SDS011;29895;48.804;9.386;2024-03-23T13:11:49;10.05;;;2.60;;
44222;SDS011;29895;48.804;9.386;2024-03-23T13:14:14;9.38;;;2.20;;
44222;SDS011;29895;48.804;9.386;2024-03-23T13:16:41;8.80;;;2.60;;
44222;SDS011;29895;48.804;9.386;2024-03-23T13:19:07;12.18;;;2.30;;
44222;SDS011;29895;48.804;9.386;2024-03-23T13:21:33;13.10;;;2.22;;
44222;SDS011;29895;48.804;9.386;2024-03-23T13:23:58;6.47;;;1.70;;
44222;SDS011;29895;48.804;9.386;2024-03-23T13:26:24;11.30;;;2.75;;
44222;SDS011;29895;48.804;9.386;2024-03-23T13:28:50;8.57;;;2.45;;
44222;SDS011;29895;48.804;9.386;2024-03-23T13:31:15;8.60;;;1.83;;
44222;SDS011;29895;48.804;9.386;2024-03-23T13:33:41;8.45;;;2.00;;
44222;SDS011;29895;48.804;9.386;2024-03-23T13:36:09;12.48;;;2.15;;
44222;SDS011;29895;48.804;9.386;2024-03-23T13:38:34;13.82;;;2.20;;
44222;SDS011;29895;48.804;9.386;2024-03-23T13:41:00;13.38;;;2.78;;
44222;SDS011;29895;48.804;9.386;2024-03-23T13:43:27;12.15;;;2.80;;
44222;SDS011;29895;48.804;9.386;2024-03-23T13:45:54;10.73;;;2.38;;
44222;SDS011;29895;48.804;9.386;2024-03-23T13:48:21;9.57;;;2.70;;
44222;SDS011;29895;48.804;9.386;2024-03-23T13:51:00;7.07;;;2.10;;
44222;SDS011;29895;48.804;9.386;2024-03-23T13:53:27;11.60;;;2.40;;
44222;SDS011;29895;48.804;9.386;2024-03-23T13:55:54;9.90;;;2.22;;
44222;SDS011;29895;48.804;9.386;2024-03-23T13:58:20;8.18;;;2.80;;
44222;SDS011;29895;48.804;9.386;2024-03-23T14:00:46;13.45;;;2.83;;
44222;SDS011;29895;48.804;9.386;2024-03-23T14:03:12;8.70;;;2.67;;
44222;SDS011;29895;48.804;9.386;2024-03-23T14:05:39;9.50;;;1.85;;
44222;SDS011;29895;48.804;9.386;2024-03-23T14:08:05;13.13;;;2.72;;
44222;SDS011;29895;48.804;9.386;2024-03-23T14:10:35;7.15;;;1.80;;
44222;SDS011;29895;48.804;9.386;2024-03-23T14:13:01;6.43;;;1.73;;
44222;SDS011;29895;48.804;9.386;2024-03-23T14:15:28;6.70;;;1.67;;
44222;SDS011;29895;48.804;9.386;2024-03-23T14:17:55;7.85;;;1.75;;
44222;SDS011;29895;48.804;9.386;2024-03-23T14:20:21;8.05;;;1.70;;
44222;SDS011;29895;48.804;9.386;2024-03-23T14:22:48;9.32;;;1.90;;
44222;SDS011;29895;48.804;9.386;2024-03-23T14:25:13;7.32;;;1.70;;
44222;SDS011;29895;48.804;9.386;2024-03-23T14:27:39;8.30;;;1.38;;
44222;SDS011;29895;48.804;9.386;2024-03-23T14:30:05;13.43;;;1.80;;
44222;SDS011;29895;48.804;9.386;2024-03-23T14:32:31;6.18;;;1.63;;
44222;SDS011;29895;48.804;9.386;2024-03-23T14:35:02;9.15;;;1.70;;
44222;SDS011;29895;48.804;9.386;2024-03-23T14:37:36;6.55;;;1.80;;
44222;SDS011;29895;48.804;9.386;2024-03-23T14:40:03;4.43;;;2.17;;
44222;SDS011;29895;48.804;9.386;2024-03-23T14:42:29;9.68;;;1.88;;
44222;SDS011;29895;48.804;9.386;2024-03-23T14:44:56;6.93;;;1.58;;
44222;SDS011;29895;48.804;9.386;2024-03-23T14:47:22;5.68;;;1.50;;
44222;SDS011;29895;48.804;9.386;2024-03-23T14:49:47;3.92;;;1.40;;
44222;SDS011;29895;48.804;9.386;2024-03-23T14:52:15;7.70;;;1.50;;
44222;SDS011;29895;48.804;9.386;2024-03-23T14:54:41;3.55;;;1.05;;
44222;SDS011;29895;48.804;9.386;2024-03-23T14:57:07;3.50;;;1.10;;
44222;SDS011;29895;48.804;9.386;2024-03-23T14:59:34;4.05;;;1.20;;
44222;SDS011;29895;48.804;9.386;2024-03-23T15:02:03;4.28;;;1.30;;
44222;SDS011;29895;48.804;9.386;2024-03-23T15:04:29;8.18;;;1.80;;
44222;SDS011;29895;48.804;9.386;2024-03-23T15:06:55;4.82;;;1.25;;
44222;SDS011;29895;48.804;9.386;2024-03-23T15:09:21;7.30;;;1.80;;
44222;SDS011;29895;48.804;9.386;2024-03-23T15:11:46;8.30;;;1.80;;
44222;SDS011;29895;48.804;9.386;2024-03-23T15:14:12;6.82;;;1.20;;
44222;SDS011;29895;48.804;9.386;2024-03-23T15:16:37;8.73;;;1.30;;
44222;SDS011;29895;48.804;9.386;2024-03-23T15:19:03;9.43;;;2.03;;
44222;SDS011;29895;48.804;9.386;2024-03-23T15:21:31;7.45;;;1.63;;
44222;SDS011;29895;48.804;9.386;2024-03-23T15:23:57;5.32;;;1.73;;
44222;SDS011;29895;48.804;9.386;2024-03-23T15:26:22;5.43;;;1.50;;
44222;SDS011;29895;48.804;9.386;2024-03-23T15:28:48;5.13;;;1.20;;
44222;SDS011;29895;48.804;9.386;2024-03-23T15:31:24;2.53;;;0.90;;
44222;SDS011;29895;48.804;9.386;2024-03-23T15:33:50;5.82;;;1.10;;
44222;SDS011;29895;48.804;9.386;2024-03-23T15:36:16;4.97;;;1.10;;
44222;SDS011;29895;48.804;9.386;2024-03-23T15:38:44;2.25;;;0.60;;
44222;SDS011;29895;48.804;9.386;2024-03-23T15:41:10;5.45;;;1.15;;
44222;SDS011;29895;48.804;9.386;2024-03-23T15:43:36;2.80;;;0.93;;
44222;SDS011;29895;48.804;9.386;2024-03-23T15:46:03;9.68;;;1.25;;
44222;SDS011;29895;48.804;9.386;2024-03-23T15:48:31;6.40;;;0.90;;
44222;SDS011;29895;48.804;9.386;2024-03-23T15:50:58;6.55;;;0.90;;
44222;SDS011;29895;48.804;9.386;2024-03-23T15:53:25;1.92;;;0.73;;
44222;SDS011;29895;48.804;9.386;2024-03-23T15:55:59;2.47;;;0.85;;